Date,TemperatureHighF,TemperatureAvgF,TemperatureLowF,DewpointHighF,DewpointAvgF,DewpointLowF,HumidityHigh,HumidityAvg,HumidityLow,PressureMaxIn,PressureMinIn,WindSpeedMaxMPH,WindSpeedAvgMPH,GustSpeedMaxMPH,PrecipitationSumIn
2013-1-9,0,0,0,0,0,0,0,0,100,30.06,30.02,17,10,17,0.00
2013-1-10,71,12,0,40,9,0,88,19,63,30.18,30.06,14,5,17,0.00
2013-1-11,53,44,38,44,37,30,100,80,45,30.25,30.11,17,5,17,0.00
2013-1-12,54,42,32,40,31,21,98,70,33,30.25,30.14,9,2,10,0.00
2013-1-13,53,39,27,33,22,13,98,53,29,30.27,30.17,8,2,12,0.02
2013-1-14,56,43,32,31,20,9,73,41,26,30.42,30.24,9,2,16,0.00
2013-1-15,53,40,30,45,34,26,99,83,43,30.51,30.41,12,2,16,0.00
2013-1-16,61,43,31,50,38,30,99,86,45,30.47,30.29,8,2,12,0.00
2013-1-17,62,44,31,56,39,30,99,87,45,30.31,30.17,9,2,14,0.00
2013-1-18,66,45,31,52,37,30,99,79,29,30.27,30.14,8,1,13,0.00
2013-1-19,67,44,31,48,36,18,99,79,31,30.30,30.20,10,1,14,0.00
2013-1-20,67,45,32,46,36,26,99,76,26,30.32,30.19,10,1,15,0.00
2013-1-21,64,46,32,49,40,31,99,83,47,30.26,30.17,10,1,13,0.00
2013-1-22,66,48,33,54,42,30,99,84,37,30.22,30.08,10,2,14,0.00
2013-1-23,52,49,46,51,47,42,100,94,76,30.18,30.03,8,1,12,0.16
2013-1-24,60,52,48,60,52,48,100,100,96,30.26,30.14,10,1,15,0.01
2013-1-25,69,57,49,66,56,49,100,96,75,30.26,30.08,6,1,10,0.00
2013-1-26,64,53,45,62,48,38,100,84,49,30.11,30.00,12,3,20,0.00
2013-1-27,62,50,42,51,40,29,99,74,32,30.22,30.11,8,3,14,0.00
2013-1-28,65,52,44,50,43,31,99,76,35,30.32,30.20,8,4,14,0.00
2013-1-29,64,52,44,55,46,38,100,84,45,30.40,30.29,7,2,12,0.00
2013-1-30,67,51,40,54,46,38,100,84,50,30.42,30.32,6,1,9,0.00
2013-1-31,68,51,38,60,48,38,100,91,58,30.38,30.24,9,2,13,0.00
2013-2-1,70,52,38,58,46,37,100,86,41,30.30,30.17,9,1,15,0.00
2013-2-2,68,52,42,53,47,42,100,86,46,30.35,30.24,6,1,12,0.00
2013-2-3,65,52,42,58,-1,-100,100,61,63,30.29,30.16,7,2,10,0.00
2013-2-4,66,51,39,-100,-100,-100,0,0,100,30.23,30.10,9,1,9,0.00
2013-2-5,61,49,41,-100,-100,-100,0,0,100,30.20,30.10,15,3,17,0.00
2013-2-6,64,51,41,49,-79,-100,98,11,2,30.25,30.15,14,3,15,0.00
2013-2-7,60,49,41,-29,-36,-42,2,2,2,30.23,30.06,21,5,21,0.10
2013-2-8,62,49,38,46,-3,-43,57,25,2,30.08,29.99,17,4,17,0.00
2013-2-9,66,50,35,38,27,13,83,44,27,30.13,30.03,15,3,15,0.00
2013-2-10,66,49,34,49,39,26,100,72,31,30.18,30.05,13,2,13,0.00
2013-2-11,70,54,42,49,38,30,91,58,26,30.28,30.13,14,3,14,0.00
2013-2-12,65,49,35,52,42,34,100,81,46,30.44,30.28,12,2,12,0.00
2013-2-13,68,53,38,51,44,-100,100,79,46,30.95,29.25,194,4,194,0.01
2013-2-14,75,54,40,69,48,40,100,84,34,30.30,30.19,44,3,44,0.00
2013-2-15,74,55,40,60,48,38,100,80,41,30.33,30.25,43,3,43,0.00
2013-2-16,72,55,41,49,43,-38,99,70,2,30.30,30.06,9,1,9,0.00
2013-2-17,70,54,40,48,37,19,96,61,19,30.09,29.98,10,3,10,0.00
2013-2-18,59,49,42,45,41,37,96,74,54,30.07,29.97,22,8,22,0.00
2013-2-19,52,46,41,46,37,26,93,73,45,30.00,29.77,15,5,15,0.13
2013-2-20,67,51,37,40,32,22,100,55,22,30.08,29.89,16,5,16,0.00
2013-2-21,68,52,39,42,34,21,95,54,20,30.21,30.07,12,2,15,0.00
2013-2-22,69,54,41,45,39,31,91,60,32,30.30,30.17,17,6,17,0.00
2013-2-23,68,54,46,42,29,15,79,43,19,30.28,30.19,15,5,19,0.00
2013-2-24,71,57,44,34,22,16,50,27,15,30.28,30.19,8,3,21,0.00
2013-2-25,68,51,40,46,18,0,85,36,45,30.31,30.19,9,2,13,0.00
2013-2-26,77,58,42,0,0,0,0,0,100,30.27,30.15,9,2,19,0.00
2013-2-27,72,55,39,0,0,0,0,0,100,30.38,30.23,6,1,10,0.00
2013-2-28,74,60,50,0,0,0,0,0,100,30.48,30.38,11,2,13,0.00
2013-3-1,78,60,47,0,0,0,0,0,100,30.47,30.26,9,1,16,0.00
2013-3-2,73,61,49,0,0,0,0,0,100,30.29,30.08,10,2,11,0.00
2013-3-3,72,59,50,0,0,0,0,0,100,30.12,30.03,12,5,18,0.00
2013-3-4,66,54,46,0,0,0,0,0,100,30.19,30.07,13,4,15,0.00
2013-3-5,60,52,43,0,0,0,0,0,100,30.11,29.89,14,5,23,0.04
2013-3-6,61,53,44,0,0,0,0,0,100,30.10,29.89,14,5,24,0.04
2013-3-7,60,50,39,0,0,0,0,0,100,30.06,29.91,9,2,12,0.00
2013-3-8,68,54,44,0,0,0,0,0,100,30.07,29.88,14,4,23,0.00
2013-3-9,76,57,41,0,0,0,0,0,100,30.33,30.07,10,2,16,0.00
2013-3-10,72,58,42,0,0,0,0,0,100,30.40,30.28,10,1,10,0.00
2013-3-11,75,58,42,0,0,0,0,0,100,30.32,30.12,10,1,13,0.00
2013-3-12,78,61,45,0,0,0,0,0,100,30.21,30.08,9,2,12,0.00
2013-3-13,80,63,48,0,0,0,0,0,100,30.21,30.08,10,2,14,0.00
2013-3-14,77,64,51,0,0,0,0,0,100,30.19,30.09,9,2,14,0.00
2013-3-15,77,63,50,0,0,0,0,0,100,30.17,30.03,9,2,13,0.00
2013-3-16,79,64,50,0,0,0,0,0,100,30.12,30.01,12,4,20,0.00
2013-3-17,76,61,48,0,0,0,0,0,100,30.19,30.05,10,2,17,0.00
2013-3-18,74,60,46,0,0,0,0,0,100,30.16,30.05,10,2,15,0.00
2013-3-19,70,58,49,0,0,0,0,0,100,30.17,30.08,9,2,19,0.08
2013-3-20,62,56,50,0,0,0,0,0,100,30.17,30.11,10,2,17,0.10
2013-3-21,72,57,45,0,0,0,0,0,100,30.18,30.03,7,2,13,0.00
2013-3-22,74,58,42,0,0,0,0,0,100,30.16,30.05,13,2,20,0.00
2013-3-23,74,58,42,0,0,0,0,0,100,30.19,30.06,8,1,11,0.00
2013-3-24,78,60,44,0,0,0,0,0,100,30.14,29.98,8,2,13,0.00
2013-3-25,66,56,47,0,0,0,0,0,100,30.06,29.95,12,4,20,0.00
2013-3-26,74,58,47,0,0,0,0,0,100,30.04,29.94,9,3,14,0.00
2013-3-27,69,58,50,0,0,0,0,0,100,30.06,29.98,12,4,17,0.00
2013-3-28,73,61,53,0,0,0,0,0,100,30.13,30.05,8,1,10,0.00
2013-3-29,80,64,49,0,0,0,0,0,100,30.14,30.02,10,2,15,0.00
2013-3-30,70,62,58,0,0,0,0,0,100,30.09,30.01,11,4,18,0.12
2013-3-31,74,61,53,0,0,0,0,0,100,30.12,30.03,11,3,17,0.03
2013-4-1,71,60,53,0,0,0,0,0,100,30.20,30.10,9,2,12,0.65
2013-4-2,75,61,49,0,0,0,0,0,100,30.22,30.08,11,3,15,0.00
2013-4-3,78,62,49,0,0,0,0,0,100,30.18,29.99,9,2,13,0.00
2013-4-4,64,58,54,0,0,0,0,0,100,30.16,30.02,11,3,19,0.58
2013-4-5,70,60,54,0,0,0,0,0,100,30.22,30.14,11,3,18,0.00
2013-4-6,71,60,54,0,0,0,0,0,100,30.24,30.13,10,3,17,0.00
2013-4-7,70,59,52,0,0,0,0,0,100,30.19,29.85,16,5,27,0.08
2013-4-8,73,59,46,0,0,0,0,0,100,30.06,29.81,13,5,25,0.00
2013-4-9,81,67,54,0,0,0,0,0,100,30.15,30.06,11,4,21,0.00
2013-4-10,90,74,60,0,0,0,0,0,100,30.21,29.98,14,3,23,0.00
2013-4-11,80,68,57,0,0,0,0,0,100,30.04,29.83,11,3,19,0.00
2013-4-12,82,64,50,0,0,0,0,0,100,29.95,29.80,11,3,17,0.00
2013-4-13,77,63,52,0,0,0,0,0,100,29.95,29.80,12,4,21,0.00
2013-4-14,78,62,51,0,0,0,0,0,100,29.97,29.81,17,5,24,0.00
2013-4-15,70,58,48,0,0,0,0,0,100,29.98,29.85,21,5,28,0.00
2013-4-16,74,60,46,0,0,0,0,0,100,30.20,29.98,13,4,24,0.00
2013-4-17,76,63,53,0,0,0,0,0,100,30.31,30.20,11,4,25,0.00
2013-4-18,82,67,55,0,0,0,0,0,100,30.32,30.18,10,3,18,0.00
2013-4-19,86,68,52,0,0,0,0,0,100,30.28,30.05,8,2,15,0.00
2013-4-20,88,71,54,0,0,0,0,0,100,30.17,29.96,11,2,17,0.00
2013-4-21,90,72,52,0,0,0,0,0,100,30.08,29.92,10,2,13,0.00
2013-4-22,94,76,58,0,0,0,0,0,100,30.00,29.83,9,2,12,0.00
2013-4-23,91,74,60,0,0,0,0,0,100,29.97,29.84,12,4,16,0.00
2013-4-24,79,63,51,0,0,0,0,0,100,29.95,29.82,14,4,23,0.00
2013-4-25,74,60,52,0,0,0,0,0,100,30.14,29.95,16,7,23,0.00
2013-4-26,54,50,50,0,0,0,0,0,100,30.20,30.13,7,1,16,0.00
2013-4-27,50,50,50,0,0,0,0,0,100,30.20,30.20,0,0,0,0.00
2013-4-28,50,50,50,0,0,0,0,0,100,30.20,30.20,0,0,0,0.00
2013-4-29,50,50,50,0,0,0,0,0,100,30.20,30.20,0,0,0,0.00
2013-5-2,87,76,67,0,0,0,0,0,100,30.09,30.06,9,1,10,0.00
2013-5-3,96,76,57,0,0,0,0,0,100,30.09,29.78,18,2,18,0.00
2013-5-4,95,74,58,0,0,0,0,0,100,29.78,29.54,21,4,23,0.00
2013-5-5,76,64,56,0,0,0,0,0,100,29.85,29.65,16,4,18,0.00
2013-5-6,76,64,58,0,0,0,0,0,100,30.01,29.85,13,2,14,0.27
2013-5-7,78,66,59,0,0,0,0,0,100,30.06,29.98,17,4,19,0.54
2013-5-8,75,62,54,0,0,0,0,0,100,30.16,30.06,19,6,20,0.00
2013-5-9,78,64,54,0,0,0,0,0,100,30.18,30.07,21,6,21,0.00
2013-5-10,85,66,53,0,0,0,0,0,100,30.20,30.06,19,5,19,0.00
2013-5-11,94,72,55,0,0,0,0,0,100,30.16,30.01,12,2,14,0.00
2013-5-12,89,71,56,0,0,0,0,0,100,30.15,29.99,17,4,20,0.00
2013-5-13,89,71,56,0,0,0,0,0,100,30.08,29.91,16,4,17,0.00
2013-5-14,86,70,58,0,0,0,0,0,100,29.96,29.88,19,6,20,0.00
2013-5-15,78,64,53,0,0,0,0,0,100,30.06,29.96,19,6,21,0.00
2013-5-16,79,64,55,0,0,0,0,0,100,30.05,29.93,22,7,26,0.00
2013-5-17,77,62,50,0,0,0,0,0,100,30.09,29.98,19,6,24,0.00
2013-5-18,83,67,50,0,0,0,0,0,100,30.16,30.03,18,4,20,0.00
2013-5-19,92,74,56,0,0,0,0,0,100,30.17,29.95,15,2,17,0.00
2013-5-20,95,78,62,0,0,0,0,0,100,30.03,29.89,22,3,22,0.00
2013-5-21,81,67,58,0,0,0,0,0,100,29.98,29.88,26,6,26,0.00
2013-5-22,78,63,50,0,0,0,0,0,100,30.06,29.89,21,5,22,0.00
2013-5-23,79,63,48,0,0,0,0,0,100,30.03,29.93,15,4,17,0.00
2013-5-24,80,64,51,0,0,0,0,0,100,30.05,29.93,21,4,21,0.00
2013-5-25,78,62,52,0,0,0,0,0,100,30.04,29.96,22,6,22,0.00
2013-5-26,80,65,54,0,0,0,0,0,100,30.14,30.03,24,6,25,0.00
2013-5-27,68,60,53,0,0,0,0,0,100,30.15,30.03,17,5,18,0.02
2013-5-28,81,67,58,0,0,0,0,0,100,30.04,29.90,16,4,18,0.00
2013-5-29,81,68,58,0,0,0,0,0,100,29.97,29.88,22,6,23,0.00
2013-5-30,85,68,53,0,0,0,0,0,100,30.01,29.91,18,4,20,0.00
2013-5-31,96,75,56,0,0,0,0,0,100,30.05,29.88,14,2,15,0.00
2013-6-1,98,79,61,0,0,0,0,0,100,29.93,29.74,13,2,14,0.00
2013-6-2,92,75,62,0,0,0,0,0,100,29.78,29.63,15,4,15,0.00
2013-6-3,81,69,58,0,0,0,0,0,100,29.85,29.70,22,7,25,0.00
2013-6-4,79,66,57,0,0,0,0,0,100,29.97,29.85,25,8,26,0.00
2013-6-5,82,65,55,0,0,0,0,0,100,30.03,29.88,21,7,22,0.00
2013-6-6,89,67,54,0,0,0,0,0,100,29.99,29.80,20,6,20,0.00
2013-6-7,100,77,57,0,0,0,0,0,100,29.90,29.70,15,3,17,0.00
2013-6-8,105,82,67,0,0,0,0,0,100,29.77,29.65,22,4,26,0.00
2013-6-9,79,68,60,0,0,0,0,0,100,29.93,29.77,26,8,34,0.00
2013-6-10,71,64,58,0,0,0,0,0,100,29.99,29.84,21,6,24,0.00
2013-6-11,84,69,57,0,0,0,0,0,100,30.01,29.87,13,4,20,0.00
2013-6-12,86,70,57,0,0,0,0,0,100,29.99,29.91,22,5,23,0.00
2013-6-13,88,71,56,0,0,0,0,0,100,30.12,29.98,17,4,18,0.00
2013-6-14,94,76,58,0,0,0,0,0,100,30.00,29.81,18,3,18,0.00
2013-6-15,86,69,56,0,0,0,0,0,100,29.97,29.83,19,5,19,0.00
2013-6-16,90,73,57,0,0,0,0,0,100,30.06,29.97,23,6,23,0.00
2013-6-17,86,70,57,0,0,0,0,0,100,30.09,29.98,24,5,25,0.00
2013-6-18,79,66,55,0,0,0,0,0,100,30.03,29.94,23,6,26,0.00
2013-6-19,83,68,56,0,0,0,0,0,100,30.08,29.98,22,5,22,0.00
2013-6-20,86,71,58,0,0,0,0,0,100,30.02,29.91,21,4,22,0.00
2013-6-21,90,73,56,0,0,0,0,0,100,30.01,29.89,15,3,17,0.00
2013-6-22,94,76,59,0,0,0,0,0,100,29.95,29.80,19,4,21,0.00
2013-6-23,73,66,58,0,0,0,0,0,100,29.88,29.82,19,6,20,0.00
2013-6-24,68,63,60,0,0,0,0,0,100,29.95,29.84,14,4,15,0.01
2013-6-25,73,66,62,0,0,0,0,0,100,30.03,29.92,16,3,18,0.19
2013-6-26,88,74,62,0,0,0,0,0,100,30.07,29.97,16,4,19,0.00
2013-6-27,98,79,62,0,0,0,0,0,100,30.10,29.98,16,3,18,0.00
2013-6-28,103,86,67,0,0,0,0,0,100,30.02,29.85,18,4,21,0.00
2013-6-29,107,89,71,0,0,0,0,0,100,29.91,29.75,17,3,18,0.00
2013-6-30,105,85,68,0,0,0,0,0,100,29.83,29.72,14,3,15,0.00
2013-7-1,104,84,67,0,0,0,0,0,100,29.84,29.76,15,3,15,0.00
2013-7-2,95,80,66,0,0,0,0,0,100,29.91,29.79,21,5,23,0.00
2013-7-3,102,82,66,0,0,0,0,0,100,29.91,29.72,18,4,20,0.00
2013-7-4,104,86,72,0,0,0,0,0,100,29.76,29.61,19,4,19,0.00
2013-7-5,82,71,60,0,0,0,0,0,100,29.75,29.64,19,7,20,0.00
2013-7-6,82,68,58,0,0,0,0,0,100,29.81,29.70,17,6,20,0.00
2013-7-7,92,71,57,0,0,0,0,0,100,29.85,29.75,16,5,16,0.00
2013-7-8,94,73,57,0,0,0,0,0,100,29.95,29.83,13,4,17,0.00
2013-7-9,101,79,59,0,0,0,0,0,100,30.02,29.90,13,2,14,0.00
2013-7-10,96,74,59,0,0,0,0,0,100,29.98,29.84,22,5,23,0.00
2013-7-11,84,66,54,0,0,0,0,0,100,29.98,29.84,19,6,20,0.00
2013-7-12,88,68,56,0,0,0,0,0,100,29.98,29.84,17,6,20,0.00
2013-7-13,94,73,58,0,0,0,0,0,100,29.98,29.86,16,4,17,0.00
2013-7-14,92,72,57,0,0,0,0,0,100,30.01,29.85,15,4,15,0.00
2013-7-15,83,65,54,0,0,0,0,0,100,29.95,29.81,23,6,23,0.00
2013-7-16,79,64,56,0,0,0,0,0,100,30.04,29.90,23,8,24,0.00
2013-7-17,89,70,56,0,0,0,0,0,100,30.12,29.99,17,4,18,0.00
2013-7-18,94,73,57,0,0,0,0,0,100,30.08,29.90,15,4,16,0.00
2013-7-19,97,75,59,0,0,0,0,0,100,29.96,29.77,17,4,20,0.00
2013-7-20,94,71,59,0,0,0,0,0,100,29.86,29.70,16,5,24,0.00
2013-7-21,90,71,58,0,0,0,0,0,100,29.90,29.74,20,6,22,0.00
2013-7-22,91,73,62,0,0,0,0,0,100,29.98,29.90,18,5,20,0.00
2013-7-23,86,75,65,0,0,0,0,0,100,30.03,29.93,16,5,20,0.00
2013-7-24,98,79,62,0,0,0,0,0,100,29.99,29.86,18,4,19,0.00
2013-7-25,94,76,63,0,0,0,0,0,100,29.98,29.89,22,5,23,0.00
2013-7-26,92,72,58,0,0,0,0,0,100,30.09,29.94,17,6,24,0.00
2013-7-27,89,70,57,0,0,0,0,0,100,30.01,29.81,20,6,23,0.00
2013-7-28,84,66,57,0,0,0,0,0,100,29.90,29.77,22,7,22,0.00
2013-7-29,78,65,57,0,0,0,0,0,100,30.02,29.84,22,8,25,0.00
2013-7-30,85,68,56,0,0,0,0,0,100,30.13,29.99,18,6,19,0.00
2013-7-31,85,67,55,0,0,0,0,0,100,30.11,29.97,19,6,20,0.00
2013-8-1,86,69,56,0,0,0,0,0,100,30.08,29.94,19,6,20,0.00
2013-8-2,90,72,58,0,0,0,0,0,100,30.01,29.87,17,3,18,0.00
2013-8-3,87,69,57,0,0,0,0,0,100,30.01,29.88,11,5,19,0.00
2013-8-4,85,66,55,0,0,0,0,0,100,30.04,29.91,12,5,16,0.00
2013-8-5,86,66,55,0,0,0,0,0,100,30.06,29.92,11,5,19,0.00
2013-8-6,83,66,55,0,0,0,0,0,100,30.06,29.97,15,6,24,0.00
2013-8-7,78,66,58,0,0,0,0,0,100,30.14,30.03,16,7,24,0.00
2013-8-8,83,68,58,0,0,0,0,0,100,30.06,29.92,14,5,19,0.00
2013-8-9,81,66,56,0,0,0,0,0,100,30.00,29.92,13,6,22,0.00
2013-8-10,86,68,58,0,0,0,0,0,100,30.06,29.97,14,5,22,0.00
2013-8-11,89,70,58,0,0,0,0,0,100,30.05,29.90,10,4,16,0.00
2013-8-12,88,70,57,0,0,0,0,0,100,30.02,29.92,11,4,19,0.00
2013-8-13,97,75,57,0,0,0,0,0,100,30.02,29.87,11,2,17,0.00
2013-8-14,94,76,61,0,0,0,0,0,100,29.98,29.86,11,4,19,0.00
2013-8-15,94,76,63,0,0,0,0,0,100,29.96,29.87,16,5,21,0.00
2013-8-16,96,77,64,0,0,0,0,0,100,29.99,29.91,11,4,19,0.00
2013-8-17,85,73,64,0,0,0,0,0,100,29.99,29.83,10,4,15,0.00
2013-8-18,99,80,62,0,0,0,0,0,100,29.92,29.75,8,2,11,0.00
2013-8-19,101,81,68,0,0,0,0,0,100,29.89,29.77,11,3,18,0.00
2013-8-20,91,75,65,0,0,0,0,0,100,29.90,29.77,15,6,24,0.00
2013-8-21,90,72,61,0,0,0,0,0,100,29.94,29.82,14,6,18,0.00
2013-8-22,85,69,59,0,0,0,0,0,100,29.98,29.86,14,6,23,0.00
2013-8-23,89,70,58,0,0,0,0,0,100,29.94,29.77,13,5,19,0.00
2013-8-24,87,72,60,0,0,0,0,0,100,29.89,29.82,16,6,28,0.00
2013-8-25,89,73,64,0,0,0,0,0,100,29.97,29.87,12,5,20,0.00
2013-8-26,88,72,61,0,0,0,0,0,100,30.04,29.88,11,5,17,0.00
2013-8-27,93,73,60,0,0,0,0,0,100,29.92,29.79,10,3,21,0.00
2013-8-28,93,74,60,0,0,0,0,0,100,29.93,29.84,17,5,18,0.00
2013-8-29,91,74,62,0,0,0,0,0,100,30.06,29.94,11,5,18,0.00
2013-8-30,99,79,63,0,0,0,0,0,100,30.05,29.89,11,2,16,0.00
2013-8-31,93,75,64,0,0,0,0,0,100,29.98,29.86,13,4,19,0.00
2013-9-1,91,73,62,0,0,0,0,0,100,29.95,29.86,13,6,22,0.00
2013-9-2,88,74,64,0,0,0,0,0,100,29.97,29.87,12,4,21,0.00
2013-9-3,88,72,62,0,0,0,0,0,100,30.01,29.91,14,5,22,0.00
2013-9-4,89,73,60,0,0,0,0,0,100,30.05,29.92,16,5,24,0.00
2013-9-6,92,79,70,0,0,0,0,0,100,29.86,29.83,7,1,13,0.00
2013-9-7,101,80,60,0,0,0,0,0,100,29.92,29.78,8,2,14,0.00
2013-9-8,102,81,62,0,0,0,0,0,100,29.89,29.73,7,2,11,0.00
2013-9-9,102,81,63,0,0,0,0,0,100,29.83,29.66,15,2,18,0.00
2013-9-10,83,69,62,0,0,0,0,0,100,29.90,29.69,16,5,21,0.00
2013-9-11,84,70,63,0,0,0,0,0,100,30.02,29.89,14,7,25,0.00
2013-9-12,89,71,61,0,0,0,0,0,100,30.02,29.85,12,4,21,0.00
2013-9-13,91,71,60,0,0,0,0,0,100,29.93,29.72,11,4,20,0.00
2013-9-14,86,69,59,0,0,0,0,0,100,29.83,29.69,14,6,19,0.00
2013-9-15,88,70,57,0,0,0,0,0,100,29.88,29.77,14,5,20,0.00
2013-9-16,90,72,61,0,0,0,0,0,100,29.91,29.76,12,4,19,0.00
2013-9-17,81,66,58,0,0,0,0,0,100,29.89,29.81,10,3,19,0.00
2013-9-18,91,72,57,0,0,0,0,0,100,29.94,29.80,15,2,18,0.00
2013-9-19,94,74,56,0,0,0,0,0,100,29.89,29.73,11,2,13,0.00
2013-9-20,84,68,56,0,0,0,0,0,100,29.86,29.78,15,5,24,0.00
2013-9-21,68,64,57,0,0,0,0,0,100,29.92,29.82,10,2,19,1.04
2013-9-22,78,64,51,0,0,0,0,0,100,30.03,29.92,10,2,16,0.00
2013-9-23,86,71,56,0,0,0,0,0,100,30.05,29.93,9,1,15,0.00
2013-9-24,85,69,60,0,0,0,0,0,100,30.00,29.86,19,5,24,0.00
2013-9-25,79,66,55,0,0,0,0,0,100,29.96,29.81,11,3,22,0.00
2013-9-26,82,67,57,0,0,0,0,0,100,30.02,29.88,12,3,18,0.00
2013-9-27,84,70,58,0,0,0,0,0,100,30.14,30.02,10,2,13,0.00
2013-9-28,86,69,53,0,0,0,0,0,100,30.14,30.00,9,2,15,0.00
2013-9-29,79,67,59,0,0,0,0,0,100,30.15,30.06,11,4,16,0.00
2013-9-30,78,69,61,0,0,0,0,0,100,30.10,29.97,10,3,16,0.01
2013-10-1,80,66,52,0,0,0,0,0,100,30.05,29.93,7,2,12,0.00
2013-10-2,82,66,55,0,0,0,0,0,100,30.04,29.94,12,2,18,0.00
2013-10-3,80,67,53,0,0,0,0,0,100,30.12,29.98,24,4,40,0.00
2013-10-4,84,73,61,0,0,0,0,0,100,30.14,30.05,26,5,35,0.00
2013-10-5,87,68,54,0,0,0,0,0,100,30.26,30.13,9,1,15,0.00
2013-10-6,87,67,49,0,0,0,0,0,100,30.20,30.01,9,1,13,0.00
2013-10-7,88,70,56,0,0,0,0,0,100,30.04,29.86,8,1,14,0.00
2013-10-8,80,65,50,0,0,0,0,0,100,29.95,29.72,9,1,12,0.00
2013-10-9,79,65,51,0,0,0,0,0,100,29.78,29.66,11,2,17,0.00
2013-10-10,78,65,54,0,0,0,0,0,100,30.02,29.77,8,2,16,0.00
2013-10-11,77,62,50,0,0,0,0,0,100,30.12,29.98,8,2,14,0.00
2013-10-12,77,61,48,0,0,0,0,0,100,30.04,29.89,11,3,19,0.00
2013-10-13,81,64,50,0,0,0,0,0,100,30.09,29.93,9,2,12,0.00
2013-10-14,82,64,49,0,0,0,0,0,100,30.17,30.02,9,1,16,0.00
2013-10-15,84,65,48,0,0,0,0,0,100,30.10,29.97,11,1,18,0.00
2013-10-16,84,64,48,0,0,0,0,0,100,30.15,30.02,9,1,15,0.00
2013-10-17,84,65,49,0,0,0,0,0,100,30.13,29.98,6,1,9,0.00
2013-10-18,85,66,50,0,0,0,0,0,100,30.10,30.00,7,1,9,0.00
2013-10-19,86,66,49,0,0,0,0,0,100,30.13,30.01,6,1,10,0.00
2013-10-20,84,67,54,0,0,0,0,0,100,30.06,29.90,8,1,12,0.00
2013-10-21,82,64,50,0,0,0,0,0,100,30.05,29.92,5,1,9,0.00
2013-10-22,84,64,48,0,0,0,0,0,100,30.06,29.92,5,1,8,0.00
2013-10-23,82,63,48,0,0,0,0,0,100,29.99,29.88,10,2,13,0.00
2013-10-24,72,59,50,0,0,0,0,0,100,30.10,29.96,14,4,19,0.00
2013-10-25,78,61,47,0,0,0,0,0,100,30.22,30.10,8,1,9,0.00
2013-10-26,83,64,49,0,0,0,0,0,100,30.20,30.03,6,0,8,0.00
2013-10-27,68,56,49,0,0,0,0,0,100,30.04,29.64,18,5,27,0.00
2013-10-28,70,57,49,0,0,0,0,0,100,29.88,29.68,10,2,13,0.00
2013-10-29,69,57,50,0,0,0,0,0,100,30.09,29.88,7,1,10,0.00
2013-10-30,71,58,45,0,0,0,0,0,100,30.21,30.09,8,1,10,0.00
2013-10-31,75,60,48,0,0,0,0,0,100,30.22,30.10,6,1,8,0.00
2013-11-1,78,61,46,0,0,0,0,0,100,30.23,30.05,10,1,15,0.00
2013-11-2,78,61,47,0,0,0,0,0,100,30.07,29.90,11,2,18,0.00
2013-11-3,70,56,46,0,0,0,0,0,100,30.08,29.95,11,1,18,0.00
2013-11-4,75,59,41,0,0,0,0,0,100,30.11,29.96,9,2,19,0.00
2013-11-5,76,61,48,0,0,0,0,0,100,30.27,30.08,12,1,19,0.00
2013-11-6,74,58,46,0,0,0,0,0,100,30.34,30.22,9,1,14,0.00
2013-11-7,77,62,50,0,0,0,0,0,100,30.23,30.09,9,1,13,0.00
2013-11-8,78,60,48,0,0,0,0,0,100,30.13,29.97,8,1,13,0.00
2013-11-9,76,60,46,0,0,0,0,0,100,30.09,30.01,11,1,12,0.00
2013-11-10,73,58,46,0,0,0,0,0,100,30.16,30.07,6,1,9,0.00
2013-11-11,70,56,45,0,0,0,0,0,100,30.21,30.13,5,1,10,0.00
2013-11-12,73,61,52,0,0,0,0,0,100,30.32,30.19,5,1,8,0.00
2013-11-13,80,62,47,0,0,0,0,0,100,30.29,30.09,8,1,10,0.00
2013-11-14,68,60,50,0,0,0,0,0,100,30.13,29.87,11,2,17,0.00
2013-11-15,72,58,48,0,0,0,0,0,100,29.89,29.76,9,2,16,0.00
2013-11-16,70,56,46,0,0,0,0,0,100,29.96,29.80,10,3,15,0.00
2013-11-17,68,54,44,0,0,0,0,0,100,30.14,29.96,5,1,8,0.00
2013-11-18,64,52,43,0,0,0,0,0,100,30.21,30.13,10,2,17,0.00
2013-11-19,58,56,53,0,0,0,0,0,100,30.15,30.00,4,0,10,0.58
2013-11-20,61,57,54,0,0,0,0,0,100,30.00,29.88,6,1,12,0.65
2013-11-21,65,57,50,0,0,0,0,0,100,30.03,29.93,35,6,43,0.03
2013-11-22,73,63,56,0,0,0,0,0,100,30.07,29.94,26,10,42,0.00
2013-11-23,67,54,44,0,0,0,0,0,100,30.15,30.03,12,2,18,0.00
2013-11-24,66,50,38,0,0,0,0,0,100,30.31,30.15,7,1,10,0.00
2013-11-25,76,53,39,44,31,0,82,44,38,30.40,30.31,10,1,10,0.00
2013-11-26,66,51,41,42,38,32,86,64,31,30.33,30.11,12,1,13,0.00
2013-11-27,69,53,43,42,38,0,80,61,30,30.11,29.91,13,1,14,0.00
2013-11-28,74,55,43,44,40,36,84,61,26,30.10,29.93,8,0,8,0.00
2013-11-29,71,55,43,45,41,38,83,63,34,30.25,30.10,6,1,9,0.00
2013-11-30,71,54,44,45,42,39,85,67,33,30.33,30.23,7,0,7,0.00
2013-12-1,72,54,43,46,41,38,85,65,32,30.40,30.26,8,0,8,0.00
2013-12-2,69,54,42,49,44,37,86,69,44,30.27,29.95,16,3,18,0.00
2013-12-3,60,52,42,50,35,19,79,53,33,30.00,29.88,25,4,25,0.00
2013-12-4,58,45,34,26,17,3,60,36,12,30.15,29.99,11,1,12,0.00
2013-12-5,56,40,29,25,19,11,71,48,18,30.23,30.14,16,0,18,0.00
2013-12-6,50,41,29,44,30,22,90,69,36,30.26,29.95,9,1,10,0.79
2013-12-7,56,43,34,44,32,20,91,69,26,30.32,29.95,16,2,19,0.01
2013-12-8,52,38,31,31,25,18,86,62,29,30.39,30.29,13,1,14,0.00
2013-12-9,53,38,27,28,23,13,85,60,21,30.50,30.38,17,2,19,0.00
2013-12-10,58,40,29,32,26,21,85,62,25,30.50,30.27,11,1,13,0.00
2013-12-11,60,42,32,35,29,25,83,61,27,30.34,30.25,13,2,15,0.00
2013-12-12,62,43,31,37,32,26,87,66,34,30.34,30.23,7,0,7,0.00
2013-12-13,62,45,33,38,34,29,86,66,36,30.40,30.29,8,0,8,0.00
2013-12-14,63,46,35,40,34,30,90,67,35,30.49,30.37,14,2,15,0.00
2013-12-15,66,46,34,40,34,30,86,66,30,30.45,30.30,8,0,8,0.00
2013-12-16,67,48,37,39,35,32,87,64,29,30.32,30.19,14,2,14,0.00
2013-12-17,67,50,39,41,36,29,84,63,25,30.26,30.09,10,1,10,0.00
2013-12-18,66,50,41,45,39,35,82,67,36,30.10,29.77,9,2,14,0.00
2013-12-19,67,51,40,42,28,11,83,47,17,29.98,29.75,16,2,18,0.00
2013-12-20,66,49,37,34,24,11,73,41,12,30.08,29.97,11,1,11,0.00
2013-12-21,64,48,37,39,33,29,77,60,30,30.17,30.02,8,0,8,0.00
2013-12-22,68,49,36,40,35,31,83,61,29,30.36,30.16,12,1,12,0.00
2013-12-23,68,50,38,39,36,32,84,62,32,30.48,30.36,11,1,11,0.00
2013-12-24,70,51,40,42,38,35,83,64,33,30.41,30.27,7,0,8,0.00
2013-12-25,68,50,38,40,34,28,83,60,24,30.40,30.27,15,2,15,0.00
2013-12-26,70,49,36,37,31,22,82,56,17,30.35,30.24,14,1,15,0.00
2013-12-27,63,47,36,38,33,30,83,62,31,30.33,30.19,7,1,10,0.00
2013-12-28,69,49,34,37,31,22,87,55,24,30.22,30.09,8,0,8,0.00
2013-12-29,67,49,37,35,29,17,70,50,15,30.27,30.15,17,2,20,0.00
2013-12-30,67,48,35,37,32,25,77,57,21,30.34,30.26,8,1,9,0.00
2013-12-31,66,48,40,38,34,30,80,60,28,30.34,30.20,6,0,6,0.00
2014-1-1,67,48,36,38,32,25,77,57,24,30.28,30.17,8,1,8,0.00
2014-1-2,71,50,37,38,34,27,82,57,20,30.26,30.11,9,1,10,0.00